sensor_id;sensor_type;location;lat;lon;timestamp;pressure;altitude;pressure_sealevel;temperature;humidity
50226;BME280;36113;50.742;6.432;2023-04-06T00:00:48;112741.81;;;-145.50;52.11
50226;BME280;36113;50.742;6.432;2023-04-06T00:03:14;112741.81;;;-145.50;52.03
50226;BME280;36113;50.742;6.432;2023-04-06T00:05:39;112741.81;;;-145.50;52.14
50226;BME280;36113;50.742;6.432;2023-04-06T00:08:05;112741.81;;;-145.50;51.81
50226;BME280;36113;50.742;6.432;2023-04-06T00:10:30;112741.81;;;-145.50;51.39
50226;BME280;36113;50.742;6.432;2023-04-06T00:12:56;112741.81;;;-145.50;51.47
50226;BME280;36113;50.742;6.432;2023-04-06T00:15:22;112741.81;;;-145.50;51.37
50226;BME280;36113;50.742;6.432;2023-04-06T00:17:48;112741.81;;;-145.50;51.31
50226;BME280;36113;50.742;6.432;2023-04-06T00:20:14;112741.81;;;-145.50;51.57
50226;BME280;36113;50.742;6.432;2023-04-06T00:22:39;112741.81;;;-145.50;51.16
50226;BME280;36113;50.742;6.432;2023-04-06T00:25:05;112741.81;;;-145.50;51.46
50226;BME280;36113;50.742;6.432;2023-04-06T00:27:31;112741.81;;;-145.50;51.96
50226;BME280;36113;50.742;6.432;2023-04-06T00:29:56;112741.81;;;-145.50;52.36
50226;BME280;36113;50.742;6.432;2023-04-06T00:32:22;112741.81;;;-145.50;53.05
50226;BME280;36113;50.742;6.432;2023-04-06T00:34:47;112741.81;;;-145.50;58.90
50226;BME280;36113;50.742;6.432;2023-04-06T00:37:12;112741.81;;;-145.50;64.50
50226;BME280;36113;50.742;6.432;2023-04-06T00:39:38;112741.81;;;-145.50;67.29
50226;BME280;36113;50.742;6.432;2023-04-06T00:42:10;112741.81;;;-145.50;69.60
50226;BME280;36113;50.742;6.432;2023-04-06T00:44:37;112741.81;;;-145.50;70.65
50226;BME280;36113;50.742;6.432;2023-04-06T00:47:03;112741.81;;;-145.50;71.75
50226;BME280;36113;50.742;6.432;2023-04-06T00:49:28;112741.81;;;-145.50;72.99
50226;BME280;36113;50.742;6.432;2023-04-06T00:51:53;112741.81;;;-145.50;73.47
50226;BME280;36113;50.742;6.432;2023-04-06T00:54:19;112741.81;;;-145.50;73.71
50226;BME280;36113;50.742;6.432;2023-04-06T00:56:45;112741.81;;;-145.50;74.46
50226;BME280;36113;50.742;6.432;2023-04-06T00:59:11;112741.81;;;-145.50;75.08
50226;BME280;36113;50.742;6.432;2023-04-06T01:01:36;112741.81;;;-145.50;75.22
50226;BME280;36113;50.742;6.432;2023-04-06T01:04:02;112741.81;;;-145.50;74.81
50226;BME280;36113;50.742;6.432;2023-04-06T01:06:28;112741.81;;;-145.50;74.01
50226;BME280;36113;50.742;6.432;2023-04-06T01:08:53;112741.81;;;-145.50;73.91
50226;BME280;36113;50.742;6.432;2023-04-06T01:11:19;112741.81;;;-145.50;73.86
50226;BME280;36113;50.742;6.432;2023-04-06T01:13:44;112741.81;;;-145.50;73.44
50226;BME280;36113;50.742;6.432;2023-04-06T01:16:10;112741.81;;;-145.50;72.84
50226;BME280;36113;50.742;6.432;2023-04-06T01:18:37;112741.81;;;-145.50;71.78
50226;BME280;36113;50.742;6.432;2023-04-06T01:21:02;112741.81;;;-145.50;71.73
50226;BME280;36113;50.742;6.432;2023-04-06T01:23:28;112741.81;;;-145.50;71.78
50226;BME280;36113;50.742;6.432;2023-04-06T01:25:53;112741.81;;;-145.50;71.80
50226;BME280;36113;50.742;6.432;2023-04-06T01:28:18;112741.81;;;-145.50;71.63
50226;BME280;36113;50.742;6.432;2023-04-06T01:30:44;112741.81;;;-145.50;72.00
50226;BME280;36113;50.742;6.432;2023-04-06T01:33:09;112741.81;;;-145.50;71.53
50226;BME280;36113;50.742;6.432;2023-04-06T01:35:35;112741.81;;;-145.50;71.63
50226;BME280;36113;50.742;6.432;2023-04-06T01:38:01;112741.81;;;-145.50;72.45
50226;BME280;36113;50.742;6.432;2023-04-06T01:40:26;112741.81;;;-145.50;72.10
50226;BME280;36113;50.742;6.432;2023-04-06T01:42:52;112741.81;;;-145.50;71.63
50226;BME280;36113;50.742;6.432;2023-04-06T01:45:17;112741.81;;;-145.50;70.48
50226;BME280;36113;50.742;6.432;2023-04-06T01:47:43;112741.81;;;-145.50;69.52
50226;BME280;36113;50.742;6.432;2023-04-06T01:50:08;112741.81;;;-145.50;69.39
50226;BME280;36113;50.742;6.432;2023-04-06T01:52:34;112741.81;;;-145.50;69.79
50226;BME280;36113;50.742;6.432;2023-04-06T01:54:59;112741.81;;;-145.50;69.75
50226;BME280;36113;50.742;6.432;2023-04-06T01:57:24;112741.81;;;-145.50;69.52
50226;BME280;36113;50.742;6.432;2023-04-06T01:59:50;112741.81;;;-145.50;68.87
50226;BME280;36113;50.742;6.432;2023-04-06T02:02:16;112741.81;;;-145.50;69.00
50226;BME280;36113;50.742;6.432;2023-04-06T02:04:41;112741.81;;;-145.50;70.43
50226;BME280;36113;50.742;6.432;2023-04-06T02:07:07;112741.81;;;-145.50;71.04
50226;BME280;36113;50.742;6.432;2023-04-06T02:09:32;112741.81;;;-145.50;70.06
50226;BME280;36113;50.742;6.432;2023-04-06T02:11:57;112741.81;;;-145.50;67.37
50226;BME280;36113;50.742;6.432;2023-04-06T02:14:25;112741.81;;;-145.50;62.25
50226;BME280;36113;50.742;6.432;2023-04-06T02:16:50;112741.81;;;-145.50;58.72
50226;BME280;36113;50.742;6.432;2023-04-06T02:19:16;112741.81;;;-145.50;56.62
50226;BME280;36113;50.742;6.432;2023-04-06T02:21:41;112741.81;;;-145.50;54.92
50226;BME280;36113;50.742;6.432;2023-04-06T02:24:07;112741.81;;;-145.50;54.48
50226;BME280;36113;50.742;6.432;2023-04-06T02:26:32;112741.81;;;-145.50;54.49
50226;BME280;36113;50.742;6.432;2023-04-06T02:28:58;112741.81;;;-145.50;53.86
50226;BME280;36113;50.742;6.432;2023-04-06T02:31:23;112741.81;;;-145.50;52.99
50226;BME280;36113;50.742;6.432;2023-04-06T02:33:48;112741.81;;;-145.50;52.24
50226;BME280;36113;50.742;6.432;2023-04-06T02:36:14;112741.81;;;-145.50;51.63
50226;BME280;36113;50.742;6.432;2023-04-06T02:38:39;112741.81;;;-145.50;51.15
50226;BME280;36113;50.742;6.432;2023-04-06T02:41:05;112741.81;;;-145.50;51.05
50226;BME280;36113;50.742;6.432;2023-04-06T02:43:30;112741.81;;;-145.50;51.31
50226;BME280;36113;50.742;6.432;2023-04-06T02:45:55;112741.81;;;-145.50;51.59
50226;BME280;36113;50.742;6.432;2023-04-06T02:48:21;112741.81;;;-145.50;51.29
50226;BME280;36113;50.742;6.432;2023-04-06T02:50:46;112741.81;;;-145.50;50.59
50226;BME280;36113;50.742;6.432;2023-04-06T02:53:11;112741.81;;;-145.50;50.17
50226;BME280;36113;50.742;6.432;2023-04-06T02:55:37;112741.81;;;-145.50;50.11
50226;BME280;36113;50.742;6.432;2023-04-06T02:58:02;112741.81;;;-145.50;49.93
50226;BME280;36113;50.742;6.432;2023-04-06T03:00:27;112741.81;;;-145.50;49.75
50226;BME280;36113;50.742;6.432;2023-04-06T03:02:53;112741.81;;;-145.50;49.95
50226;BME280;36113;50.742;6.432;2023-04-06T03:05:18;112741.81;;;-145.50;49.98
50226;BME280;36113;50.742;6.432;2023-04-06T03:07:43;112741.81;;;-145.50;50.15
50226;BME280;36113;50.742;6.432;2023-04-06T03:10:09;112741.81;;;-145.50;50.35
50226;BME280;36113;50.742;6.432;2023-04-06T03:12:35;112741.81;;;-145.50;49.97
50226;BME280;36113;50.742;6.432;2023-04-06T03:15:00;112741.81;;;-145.50;50.06
50226;BME280;36113;50.742;6.432;2023-04-06T03:17:25;112741.81;;;-145.50;50.03
50226;BME280;36113;50.742;6.432;2023-04-06T03:19:51;112741.81;;;-145.50;50.16
50226;BME280;36113;50.742;6.432;2023-04-06T03:22:16;112741.81;;;-145.50;50.52
50226;BME280;36113;50.742;6.432;2023-04-06T03:24:41;112741.81;;;-145.50;50.68
50226;BME280;36113;50.742;6.432;2023-04-06T03:27:07;112741.81;;;-145.50;50.97
50226;BME280;36113;50.742;6.432;2023-04-06T03:29:32;112741.81;;;-145.50;51.23
50226;BME280;36113;50.742;6.432;2023-04-06T03:31:57;112741.81;;;-145.50;51.51
50226;BME280;36113;50.742;6.432;2023-04-06T03:34:23;112741.81;;;-145.50;51.70
50226;BME280;36113;50.742;6.432;2023-04-06T03:36:48;112741.81;;;-145.50;51.74
50226;BME280;36113;50.742;6.432;2023-04-06T03:39:13;112741.81;;;-145.50;52.32
50226;BME280;36113;50.742;6.432;2023-04-06T03:41:39;112741.81;;;-145.50;52.58
50226;BME280;36113;50.742;6.432;2023-04-06T03:44:05;112741.81;;;-145.50;52.77
50226;BME280;36113;50.742;6.432;2023-04-06T03:46:30;112741.81;;;-145.50;53.38
50226;BME280;36113;50.742;6.432;2023-04-06T03:48:56;112741.81;;;-145.50;53.78
50226;BME280;36113;50.742;6.432;2023-04-06T03:51:21;112741.81;;;-145.50;54.18
50226;BME280;36113;50.742;6.432;2023-04-06T03:53:47;112741.81;;;-145.50;53.92
50226;BME280;36113;50.742;6.432;2023-04-06T03:56:12;112741.81;;;-145.50;54.09
50226;BME280;36113;50.742;6.432;2023-04-06T03:58:38;112741.81;;;-145.50;54.45
50226;BME280;36113;50.742;6.432;2023-04-06T04:01:03;112741.81;;;-145.50;54.66
50226;BME280;36113;50.742;6.432;2023-04-06T04:03:28;112741.81;;;-145.50;54.60
50226;BME280;36113;50.742;6.432;2023-04-06T04:05:54;112741.81;;;-145.50;54.74
50226;BME280;36113;50.742;6.432;2023-04-06T04:08:24;112741.81;;;-145.50;54.66
50226;BME280;36113;50.742;6.432;2023-04-06T04:10:49;112741.81;;;-145.50;55.09
50226;BME280;36113;50.742;6.432;2023-04-06T04:13:14;112741.81;;;-145.50;54.95
50226;BME280;36113;50.742;6.432;2023-04-06T04:15:40;112741.81;;;-145.50;54.79
50226;BME280;36113;50.742;6.432;2023-04-06T04:18:05;112741.81;;;-145.50;55.09
50226;BME280;36113;50.742;6.432;2023-04-06T04:20:31;112741.81;;;-145.50;55.06
50226;BME280;36113;50.742;6.432;2023-04-06T04:22:56;112741.81;;;-145.50;55.04
50226;BME280;36113;50.742;6.432;2023-04-06T04:25:22;112741.81;;;-145.50;55.48
50226;BME280;36113;50.742;6.432;2023-04-06T04:27:48;112741.81;;;-145.50;55.33
50226;BME280;36113;50.742;6.432;2023-04-06T04:30:13;112741.81;;;-145.50;55.21
50226;BME280;36113;50.742;6.432;2023-04-06T04:32:39;112741.81;;;-145.50;55.33
50226;BME280;36113;50.742;6.432;2023-04-06T04:35:04;112741.81;;;-145.50;55.55
50226;BME280;36113;50.742;6.432;2023-04-06T04:37:30;112741.81;;;-145.50;55.77
50226;BME280;36113;50.742;6.432;2023-04-06T04:39:55;112741.81;;;-145.50;55.90
50226;BME280;36113;50.742;6.432;2023-04-06T04:42:21;112741.81;;;-145.50;55.90
50226;BME280;36113;50.742;6.432;2023-04-06T04:44:46;112741.81;;;-145.50;56.26
50226;BME280;36113;50.742;6.432;2023-04-06T04:47:12;112741.81;;;-145.50;56.48
50226;BME280;36113;50.742;6.432;2023-04-06T04:49:37;112741.81;;;-145.50;56.54
50226;BME280;36113;50.742;6.432;2023-04-06T04:52:02;112741.81;;;-145.50;56.49
50226;BME280;36113;50.742;6.432;2023-04-06T04:54:28;112741.81;;;-145.50;55.49
50226;BME280;36113;50.742;6.432;2023-04-06T04:56:53;112741.81;;;-145.50;54.58
50226;BME280;36113;50.742;6.432;2023-04-06T04:59:18;112741.81;;;-145.50;53.63
50226;BME280;36113;50.742;6.432;2023-04-06T05:01:44;112741.81;;;-145.50;53.13
50226;BME280;36113;50.742;6.432;2023-04-06T05:04:09;112741.81;;;-145.50;52.88
50226;BME280;36113;50.742;6.432;2023-04-06T05:06:35;112741.81;;;-145.50;52.37
50226;BME280;36113;50.742;6.432;2023-04-06T05:09:00;112741.81;;;-145.50;52.11
50226;BME280;36113;50.742;6.432;2023-04-06T05:11:25;112741.81;;;-145.50;51.98
50226;BME280;36113;50.742;6.432;2023-04-06T05:13:51;112741.81;;;-145.50;51.84
50226;BME280;36113;50.742;6.432;2023-04-06T05:16:16;112741.81;;;-145.50;51.56
50226;BME280;36113;50.742;6.432;2023-04-06T05:18:42;112741.81;;;-145.50;51.44
50226;BME280;36113;50.742;6.432;2023-04-06T05:21:07;112741.81;;;-145.50;51.34
50226;BME280;36113;50.742;6.432;2023-04-06T05:23:33;112741.81;;;-145.50;51.39
50226;BME280;36113;50.742;6.432;2023-04-06T05:25:58;112741.81;;;-145.50;51.28
50226;BME280;36113;50.742;6.432;2023-04-06T05:28:23;112741.81;;;-145.50;51.10
50226;BME280;36113;50.742;6.432;2023-04-06T05:30:49;112741.81;;;-145.50;50.52
50226;BME280;36113;50.742;6.432;2023-04-06T05:33:14;112741.81;;;-145.50;50.47
50226;BME280;36113;50.742;6.432;2023-04-06T05:35:40;112741.81;;;-145.50;49.92
50226;BME280;36113;50.742;6.432;2023-04-06T05:38:08;112741.81;;;-145.50;49.97
50226;BME280;36113;50.742;6.432;2023-04-06T05:40:33;112741.81;;;-145.50;49.63
50226;BME280;36113;50.742;6.432;2023-04-06T05:42:59;112741.81;;;-145.50;49.24
50226;BME280;36113;50.742;6.432;2023-04-06T05:45:25;112741.81;;;-145.50;49.01
50226;BME280;36113;50.742;6.432;2023-04-06T05:47:51;112741.81;;;-145.50;49.01
50226;BME280;36113;50.742;6.432;2023-04-06T05:50:16;112741.81;;;-145.50;48.45
50226;BME280;36113;50.742;6.432;2023-04-06T05:52:41;112741.81;;;-145.50;48.57
50226;BME280;36113;50.742;6.432;2023-04-06T05:55:09;112741.81;;;-145.50;48.45
50226;BME280;36113;50.742;6.432;2023-04-06T05:57:34;112741.81;;;-145.50;48.14
50226;BME280;36113;50.742;6.432;2023-04-06T06:00:00;112741.81;;;-145.50;48.05
50226;BME280;36113;50.742;6.432;2023-04-06T06:02:25;112741.81;;;-145.50;47.91
50226;BME280;36113;50.742;6.432;2023-04-06T06:04:51;112741.81;;;-145.50;47.82
50226;BME280;36113;50.742;6.432;2023-04-06T06:07:16;112741.81;;;-145.50;47.74
50226;BME280;36113;50.742;6.432;2023-04-06T06:09:41;112741.81;;;-145.50;47.22
50226;BME280;36113;50.742;6.432;2023-04-06T06:12:07;112741.81;;;-145.50;47.40
50226;BME280;36113;50.742;6.432;2023-04-06T06:14:33;112741.81;;;-145.50;47.65
50226;BME280;36113;50.742;6.432;2023-04-06T06:16:58;112741.81;;;-145.50;47.64
50226;BME280;36113;50.742;6.432;2023-04-06T06:19:23;112741.81;;;-145.50;48.05
50226;BME280;36113;50.742;6.432;2023-04-06T06:21:49;112741.81;;;-145.50;48.27
50226;BME280;36113;50.742;6.432;2023-04-06T06:24:14;112741.81;;;-145.50;48.62
50226;BME280;36113;50.742;6.432;2023-04-06T06:26:40;112741.81;;;-145.50;48.83
50226;BME280;36113;50.742;6.432;2023-04-06T06:29:06;112741.81;;;-145.50;49.34
50226;BME280;36113;50.742;6.432;2023-04-06T06:31:31;112741.81;;;-145.50;49.68
50226;BME280;36113;50.742;6.432;2023-04-06T06:33:57;112741.81;;;-145.50;49.82
50226;BME280;36113;50.742;6.432;2023-04-06T06:36:22;112741.81;;;-145.50;50.10
50226;BME280;36113;50.742;6.432;2023-04-06T06:38:48;112741.81;;;-145.50;50.12
50226;BME280;36113;50.742;6.432;2023-04-06T06:41:13;112741.81;;;-145.50;50.15
50226;BME280;36113;50.742;6.432;2023-04-06T06:43:38;112741.81;;;-145.50;50.20
50226;BME280;36113;50.742;6.432;2023-04-06T06:46:04;112741.81;;;-145.50;49.97
50226;BME280;36113;50.742;6.432;2023-04-06T06:48:30;112741.81;;;-145.50;49.81
50226;BME280;36113;50.742;6.432;2023-04-06T06:50:56;112741.81;;;-145.50;49.90
50226;BME280;36113;50.742;6.432;2023-04-06T06:53:21;112741.81;;;-145.50;49.53
50226;BME280;36113;50.742;6.432;2023-04-06T06:55:47;112741.81;;;-145.50;49.28
50226;BME280;36113;50.742;6.432;2023-04-06T06:58:14;112741.81;;;-145.50;49.66
50226;BME280;36113;50.742;6.432;2023-04-06T07:00:39;112741.81;;;-145.50;50.20
50226;BME280;36113;50.742;6.432;2023-04-06T07:03:04;112741.81;;;-145.50;50.28
50226;BME280;36113;50.742;6.432;2023-04-06T07:05:30;112741.81;;;-145.50;50.07
50226;BME280;36113;50.742;6.432;2023-04-06T07:07:55;112741.81;;;-145.50;49.87
50226;BME280;36113;50.742;6.432;2023-04-06T07:10:21;112741.81;;;-145.50;49.93
50226;BME280;36113;50.742;6.432;2023-04-06T07:12:46;112741.81;;;-145.50;50.16
50226;BME280;36113;50.742;6.432;2023-04-06T07:15:12;112741.81;;;-145.50;50.85
50226;BME280;36113;50.742;6.432;2023-04-06T07:17:37;112741.81;;;-145.50;50.44
50226;BME280;36113;50.742;6.432;2023-04-06T07:20:03;112741.81;;;-145.50;50.10
50226;BME280;36113;50.742;6.432;2023-04-06T07:22:29;112741.81;;;-145.50;49.46
50226;BME280;36113;50.742;6.432;2023-04-06T07:24:54;112741.81;;;-145.50;49.11
50226;BME280;36113;50.742;6.432;2023-04-06T07:27:20;112741.81;;;-145.50;48.93
50226;BME280;36113;50.742;6.432;2023-04-06T07:29:45;112741.81;;;-145.50;49.68
50226;BME280;36113;50.742;6.432;2023-04-06T07:32:10;112741.81;;;-145.50;49.13
50226;BME280;36113;50.742;6.432;2023-04-06T07:34:36;112741.81;;;-145.50;48.91
50226;BME280;36113;50.742;6.432;2023-04-06T07:37:01;112741.81;;;-145.50;48.31
50226;BME280;36113;50.742;6.432;2023-04-06T07:39:28;112741.81;;;-145.50;48.49
50226;BME280;36113;50.742;6.432;2023-04-06T07:41:53;112741.81;;;-145.50;48.12
50226;BME280;36113;50.742;6.432;2023-04-06T07:44:18;112741.81;;;-145.50;49.02
50226;BME280;36113;50.742;6.432;2023-04-06T07:46:44;112741.81;;;-145.50;49.20
50226;BME280;36113;50.742;6.432;2023-04-06T07:49:09;112741.81;;;-145.50;49.46
50226;BME280;36113;50.742;6.432;2023-04-06T07:51:37;112741.81;;;-145.50;49.03
50226;BME280;36113;50.742;6.432;2023-04-06T07:54:03;112741.81;;;-145.50;48.00
50226;BME280;36113;50.742;6.432;2023-04-06T07:56:28;112741.81;;;-145.50;47.83
50226;BME280;36113;50.742;6.432;2023-04-06T07:58:53;112741.81;;;-145.50;48.61
50226;BME280;36113;50.742;6.432;2023-04-06T08:01:21;112741.81;;;-145.50;47.27
50226;BME280;36113;50.742;6.432;2023-04-06T08:03:47;112741.81;;;-145.50;47.60
50226;BME280;36113;50.742;6.432;2023-04-06T08:06:12;112741.81;;;-145.50;46.21
50226;BME280;36113;50.742;6.432;2023-04-06T08:08:37;112741.81;;;-145.50;46.26
50226;BME280;36113;50.742;6.432;2023-04-06T08:11:03;112741.81;;;-145.50;45.95
50226;BME280;36113;50.742;6.432;2023-04-06T08:13:28;112741.81;;;-145.50;46.39
50226;BME280;36113;50.742;6.432;2023-04-06T08:15:54;112741.81;;;-145.50;46.99
50226;BME280;36113;50.742;6.432;2023-04-06T08:18:20;112741.81;;;-145.50;46.18
50226;BME280;36113;50.742;6.432;2023-04-06T08:20:45;112741.81;;;-145.50;46.16
50226;BME280;36113;50.742;6.432;2023-04-06T08:23:10;112741.81;;;-145.50;46.37
50226;BME280;36113;50.742;6.432;2023-04-06T08:25:36;112741.81;;;-145.50;46.28
50226;BME280;36113;50.742;6.432;2023-04-06T08:28:03;112741.81;;;-145.50;46.24
50226;BME280;36113;50.742;6.432;2023-04-06T08:30:29;112741.81;;;-145.50;45.99
50226;BME280;36113;50.742;6.432;2023-04-06T08:32:54;112741.81;;;-145.50;45.69
50226;BME280;36113;50.742;6.432;2023-04-06T08:35:20;112741.81;;;-145.50;46.39
50226;BME280;36113;50.742;6.432;2023-04-06T08:37:45;112741.81;;;-145.50;46.73
50226;BME280;36113;50.742;6.432;2023-04-06T08:40:12;112741.81;;;-145.50;45.69
50226;BME280;36113;50.742;6.432;2023-04-06T08:42:42;112741.81;;;-145.50;45.75
50226;BME280;36113;50.742;6.432;2023-04-06T08:45:09;112741.81;;;-145.50;45.98
50226;BME280;36113;50.742;6.432;2023-04-06T08:47:38;112741.81;;;-145.50;45.48
50226;BME280;36113;50.742;6.432;2023-04-06T08:50:05;112741.81;;;-145.50;44.79
50226;BME280;36113;50.742;6.432;2023-04-06T08:52:32;112741.81;;;-145.50;44.90
50226;BME280;36113;50.742;6.432;2023-04-06T08:54:58;112741.81;;;-145.50;44.21
50226;BME280;36113;50.742;6.432;2023-04-06T08:57:25;112741.81;;;-145.50;44.85
50226;BME280;36113;50.742;6.432;2023-04-06T08:59:51;112741.81;;;-145.50;44.92
50226;BME280;36113;50.742;6.432;2023-04-06T09:02:18;112741.81;;;-145.50;44.96
50226;BME280;36113;50.742;6.432;2023-04-06T09:04:52;112741.81;;;-145.50;45.29
50226;BME280;36113;50.742;6.432;2023-04-06T09:07:18;112741.81;;;-145.50;45.12
50226;BME280;36113;50.742;6.432;2023-04-06T09:09:44;112741.81;;;-145.50;44.10
50226;BME280;36113;50.742;6.432;2023-04-06T09:12:29;112741.81;;;-145.50;43.93
50226;BME280;36113;50.742;6.432;2023-04-06T09:14:55;112741.81;;;-145.50;43.67
50226;BME280;36113;50.742;6.432;2023-04-06T09:17:22;112741.81;;;-145.50;43.70
50226;BME280;36113;50.742;6.432;2023-04-06T09:19:48;112741.81;;;-145.50;43.72
50226;BME280;36113;50.742;6.432;2023-04-06T09:22:14;112741.81;;;-145.50;43.44
50226;BME280;36113;50.742;6.432;2023-04-06T09:24:50;112741.81;;;-145.50;42.45
50226;BME280;36113;50.742;6.432;2023-04-06T09:27:16;112741.81;;;-145.50;42.73
50226;BME280;36113;50.742;6.432;2023-04-06T09:29:43;112741.81;;;-145.50;42.59
50226;BME280;36113;50.742;6.432;2023-04-06T09:32:09;112741.81;;;-145.50;42.25
50226;BME280;36113;50.742;6.432;2023-04-06T09:34:41;112741.81;;;-145.50;42.56
50226;BME280;36113;50.742;6.432;2023-04-06T09:37:17;112741.81;;;-145.50;43.02
50226;BME280;36113;50.742;6.432;2023-04-06T09:39:43;112741.81;;;-145.50;42.25
50226;BME280;36113;50.742;6.432;2023-04-06T09:42:09;112741.81;;;-145.50;42.80
50226;BME280;36113;50.742;6.432;2023-04-06T09:44:35;112741.81;;;-145.50;43.34
50226;BME280;36113;50.742;6.432;2023-04-06T09:47:00;112741.81;;;-145.50;42.55
50226;BME280;36113;50.742;6.432;2023-04-06T09:49:31;112741.81;;;-145.50;41.72
50226;BME280;36113;50.742;6.432;2023-04-06T09:51:59;112741.81;;;-145.50;42.13
50226;BME280;36113;50.742;6.432;2023-04-06T09:54:28;112741.81;;;-145.50;41.81
50226;BME280;36113;50.742;6.432;2023-04-06T10:00:06;112741.81;;;-145.50;42.70
50226;BME280;36113;50.742;6.432;2023-04-06T10:08:03;112741.81;;;-145.50;42.62
50226;BME280;36113;50.742;6.432;2023-04-06T10:10:30;112741.81;;;-145.50;42.53
50226;BME280;36113;50.742;6.432;2023-04-06T10:12:56;112741.81;;;-145.50;42.17
50226;BME280;36113;50.742;6.432;2023-04-06T10:15:21;112741.81;;;-145.50;40.72
50226;BME280;36113;50.742;6.432;2023-04-06T10:17:47;112741.81;;;-145.50;40.16
50226;BME280;36113;50.742;6.432;2023-04-06T10:20:39;112741.81;;;-145.50;40.02
50226;BME280;36113;50.742;6.432;2023-04-06T10:23:44;112741.81;;;-145.50;40.81
50226;BME280;36113;50.742;6.432;2023-04-06T10:26:14;112741.81;;;-145.50;38.89
50226;BME280;36113;50.742;6.432;2023-04-06T10:28:42;112741.81;;;-145.50;38.91
50226;BME280;36113;50.742;6.432;2023-04-06T10:31:08;112741.81;;;-145.50;39.12
50226;BME280;36113;50.742;6.432;2023-04-06T10:33:34;112741.81;;;-145.50;40.11
50226;BME280;36113;50.742;6.432;2023-04-06T10:36:21;112741.81;;;-145.50;39.52
50226;BME280;36113;50.742;6.432;2023-04-06T10:38:46;112741.81;;;-145.50;39.38
50226;BME280;36113;50.742;6.432;2023-04-06T10:41:12;112741.81;;;-145.50;39.90
50226;BME280;36113;50.742;6.432;2023-04-06T10:43:39;112741.81;;;-145.50;39.65
50226;BME280;36113;50.742;6.432;2023-04-06T10:46:06;112741.81;;;-145.50;40.35
50226;BME280;36113;50.742;6.432;2023-04-06T10:48:41;112741.81;;;-145.50;39.65
50226;BME280;36113;50.742;6.432;2023-04-06T10:51:15;112741.81;;;-145.50;39.33
50226;BME280;36113;50.742;6.432;2023-04-06T10:53:45;112741.81;;;-145.50;39.27
50226;BME280;36113;50.742;6.432;2023-04-06T10:56:16;112741.81;;;-145.50;40.48
50226;BME280;36113;50.742;6.432;2023-04-06T10:58:49;112741.81;;;-145.50;40.35
50226;BME280;36113;50.742;6.432;2023-04-06T11:01:19;112741.81;;;-145.50;40.22
50226;BME280;36113;50.742;6.432;2023-04-06T11:03:49;112741.81;;;-145.50;40.73
50226;BME280;36113;50.742;6.432;2023-04-06T11:06:22;112741.81;;;-145.50;41.17
50226;BME280;36113;50.742;6.432;2023-04-06T11:08:48;112741.81;;;-145.50;40.79
50226;BME280;36113;50.742;6.432;2023-04-06T11:11:15;112741.81;;;-145.50;40.81
50226;BME280;36113;50.742;6.432;2023-04-06T11:13:49;112741.81;;;-145.50;41.37
50226;BME280;36113;50.742;6.432;2023-04-06T11:16:16;112741.81;;;-145.50;41.47
50226;BME280;36113;50.742;6.432;2023-04-06T11:18:53;112741.81;;;-145.50;41.96
50226;BME280;36113;50.742;6.432;2023-04-06T11:21:20;112741.81;;;-145.50;42.38
50226;BME280;36113;50.742;6.432;2023-04-06T11:23:45;112741.81;;;-145.50;40.76
50226;BME280;36113;50.742;6.432;2023-04-06T11:26:14;112741.81;;;-145.50;40.66
50226;BME280;36113;50.742;6.432;2023-04-06T11:28:41;112741.81;;;-145.50;40.35
50226;BME280;36113;50.742;6.432;2023-04-06T11:31:07;112741.81;;;-145.50;39.38
50226;BME280;36113;50.742;6.432;2023-04-06T11:33:37;112741.81;;;-145.50;39.49
50226;BME280;36113;50.742;6.432;2023-04-06T11:36:04;112741.81;;;-145.50;39.89
50226;BME280;36113;50.742;6.432;2023-04-06T11:38:30;112741.81;;;-145.50;39.45
50226;BME280;36113;50.742;6.432;2023-04-06T11:40:56;112741.81;;;-145.50;39.88
50226;BME280;36113;50.742;6.432;2023-04-06T11:43:29;112741.81;;;-145.50;39.97
50226;BME280;36113;50.742;6.432;2023-04-06T11:46:02;112741.81;;;-145.50;40.90
50226;BME280;36113;50.742;6.432;2023-04-06T11:48:28;112741.81;;;-145.50;40.48
50226;BME280;36113;50.742;6.432;2023-04-06T11:50:58;112741.81;;;-145.50;41.08
50226;BME280;36113;50.742;6.432;2023-04-06T11:53:25;112741.81;;;-145.50;41.59
50226;BME280;36113;50.742;6.432;2023-04-06T11:55:51;112741.81;;;-145.50;43.25
50226;BME280;36113;50.742;6.432;2023-04-06T11:58:16;112741.81;;;-145.50;44.10
50226;BME280;36113;50.742;6.432;2023-04-06T12:00:43;112741.81;;;-145.50;45.42
50226;BME280;36113;50.742;6.432;2023-04-06T12:03:11;112741.81;;;-145.50;46.09
50226;BME280;36113;50.742;6.432;2023-04-06T12:05:37;112741.81;;;-145.50;47.53
50226;BME280;36113;50.742;6.432;2023-04-06T12:08:02;112741.81;;;-145.50;46.82
50226;BME280;36113;50.742;6.432;2023-04-06T12:10:28;112741.81;;;-145.50;48.31
50226;BME280;36113;50.742;6.432;2023-04-06T12:12:53;112741.81;;;-145.50;46.97
50226;BME280;36113;50.742;6.432;2023-04-06T12:15:19;112741.81;;;-145.50;47.08
50226;BME280;36113;50.742;6.432;2023-04-06T12:17:44;112741.81;;;-145.50;45.53
50226;BME280;36113;50.742;6.432;2023-04-06T12:20:10;112741.81;;;-145.50;47.04
50226;BME280;36113;50.742;6.432;2023-04-06T12:22:35;112741.81;;;-145.50;47.53
50226;BME280;36113;50.742;6.432;2023-04-06T12:25:01;112741.81;;;-145.50;47.86
50226;BME280;36113;50.742;6.432;2023-04-06T12:27:27;112741.81;;;-145.50;46.68
50226;BME280;36113;50.742;6.432;2023-04-06T12:29:52;112741.81;;;-145.50;46.08
50226;BME280;36113;50.742;6.432;2023-04-06T12:32:17;112741.81;;;-145.50;46.44
50226;BME280;36113;50.742;6.432;2023-04-06T12:34:44;112741.81;;;-145.50;47.66